Hauptseite
METAR-TAF:

METAR-TAF

Flughäfen :

Wallis, Frankreich

Breite: 13-14S, Länge: 176-10W, Höhe: 23 m

METAR: fehlend

Zeit: 01:46 (13:46 UTC)

Prognose

Neuester Wetterbericht von vor 2 Stunden und 46 Minuten, um 11:00 UTC
Gültige Prognose vom 28 um 12 UTC bis 29 um 12 UTC
Wind 6 kt aus Ost/Südost
Sichtweite 10 km oder mehr
Aufgelockert bewölkt in der Höhe von 2000 ft
Zeitweise
vom 28 um 18 UTC bis 28 um 24 UTC
Sichtweite: 4000 m
Leicht bewölkt in der Höhe von 2000 ft, Towering cumulus.
Regenschauer

TAF: NLWW 281100Z 2812/2912 11006KT 9999 SCT020 TEMPO 2818/2824 4000 SHRA FEW020TCU

Wetterbeobachtungen und Prognosen von mehr als 4000 Flughäfen (METAR und TAF Bericht).

Die verfügbaren Stationen werden durch gelbe und rote Markierungen auf der Karte dargestellt.

Führen Sie die Maus auf sie, um den Namen der Station zu sehen.

Darauf klicken, um die Beobachtung von Wetterbeobachtungen und Prognosen zu sehen.

Um die Karte zu ändern : klicken Sie auf den grünen Tasten mit einem schwarzen Kreuz Zum Vergrößern, auf den grünen Button mit einem Gedankenstrich zu verkleinern, oder auf die grünen Pfeile für benachbarte Karten.


METAR-TAF: